• Join FlightAware (Why Join?)
  • Login
  • US Flag 
11:58PM EDT


 

Airport Tracker/Info


-or-


 

Live Flight TrackerFlight Track Log ✈ FLG3735 ✈ 16-Aug-2013 ✈ KDTW - KALB

Flight Track Log - Related Links

Times and Time Zones

All times are in EDT time to prevent confusion due to time zone crossing. See the FLG3735 flight status page for this flight to view local times or setup timezone preferences in your user account.

Time Position Orientation Groundspeed Altitude Reporting Facility
EDT Latitude Longitude Course Direction KTS MPH feet Rate Location/Type
10:22PM 42.2036 -83.3556 56° Northeast 153 176 1,300  Level Cleveland Center
10:23PM 42.1517 -83.3561 180° South 164 189 3,100 1,860 Climbing Cleveland Center
10:25PM 42.0167 -83.3278 171° South 253 291 7,200 2,040 Climbing Cleveland Center
10:26PM 42.3149 -82.7589 75° East  Level FlightAware Approximate
10:26PM 42.0253 -83.2358 83° East 192 221 9,300  Level Cleveland Center
10:27PM 42.3309 -82.6075 82° East  Level FlightAware Approximate
10:27PM 42.0669 -83.1425 59° Northeast 190 219 11,000  Level Cleveland Center
10:28PM 42.3604 -82.4626 56° Northeast  Level FlightAware Approximate
10:28PM 42.1131 -83.0381 59° Northeast 257 296 12,300  Level Cleveland Center
10:29PM 42.1611 -82.9278 60° Northeast 302 348 13,800 1,440 Climbing Cleveland Center
10:30PM 42.2114 -82.8119 60° Northeast 336 387 15,200 1,500 Climbing Cleveland Center
10:31PM 42.2614 -82.6958 60° Northeast 353 406 16,900 1,440 Climbing Cleveland Center
10:32PM 42.3136 -82.5767 59° Northeast 358 412 18,100 1,140 Climbing Cleveland Center
10:33PM 42.3347 -82.4425 78° East 358 412 19,300 1,080 Climbing Cleveland Center
10:34PM 42.3475 -82.2969 83° East 370 426 20,300 1,020 Climbing Cleveland Center
10:35PM 42.3600 -82.1342 84° East 392 451 21,400 1,020 Climbing Cleveland Center
10:36PM 42.3725 -81.9828 84° East 399 459 22,400 900 Climbing Cleveland Center
10:37PM 42.3844 -81.8481 83° East 409 471 23,300 900 Climbing Cleveland Center
10:38PM 42.3986 -81.6881 83° East 409 471 24,300 900 Climbing Cleveland Center
10:39PM 42.4103 -81.5364 84° East 409 471 25,100 660 Climbing Cleveland Center
10:40PM 42.4242 -81.3792 83° East 409 471 25,700 600 Climbing Cleveland Center
10:41PM 42.4333 -81.2189 86° East 420 483 26,300 600 Climbing Cleveland Center
10:42PM 42.4467 -81.0531 84° East 425 489 26,900 600 Climbing Cleveland Center
10:43PM 42.4597 -80.8731 84° East 430 495 27,500 540 Climbing Cleveland Center
10:44PM 42.4706 -80.7042 85° East 443 510 28,000 480 Climbing Cleveland Center
10:45PM 42.4831 -80.5381 84° East 451 519 28,500 480 Climbing Cleveland Center
10:46PM 42.4956 -80.3636 84° East 451 519 29,000 240 Climbing Cleveland Center
10:47PM 42.5075 -80.1889 85° East 462 532 29,000  Level Cleveland Center
10:48PM 42.5172 -80.0114 86° East 467 537 29,000  Level Cleveland Center
10:49PM 42.5350 -79.8308 82° East 472 543 29,000  Level Cleveland Center
10:50PM 42.5439 -79.6475 86° East 482 555 29,000  Level Cleveland Center
10:51PM 42.5547 -79.4614 85° East 482 555 29,000  Level Cleveland Center
10:52PM 42.5653 -79.2781 85° East 487 560 29,000  Level Cleveland Center
10:53PM 42.5756 -79.0889 86° East 492 566 29,000  Level Cleveland Center
10:54PM 42.5856 -78.9025 86° East 492 566 29,000  Level Cleveland Center
10:55PM 42.5953 -78.7161 86° East 497 572 29,000  Level Cleveland Center
10:56PM 42.6044 -78.5294 86° East 497 572 29,000  Level Cleveland Center
10:57PM 42.6136 -78.3431 86° East 497 572 29,000  Level Cleveland Center
10:58PM 42.6222 -78.1536 86° East 497 572 29,000  Level Cleveland Center
10:59PM 42.6328 -77.9642 86° East 497 572 29,000  Level Cleveland Center
11:00PM 42.6408 -77.7747 87° East 497 572 29,000  Level Cleveland Center
11:01PM 42.6483 -77.5825 87° East 502 578 29,000  Level Cleveland Center
11:03PM 42.6628 -77.2128 87° East 514 592 29,000  Level Boston Center
11:04PM 42.6708 -77.0211 87° East 514 592 29,000  Level Boston Center
11:05PM 42.6783 -76.8267 87° East 514 592 29,000  Level Boston Center
11:06PM 42.6856 -76.6350 87° East 514 592 29,000  Level Boston Center
11:07PM 42.6906 -76.4433 88° East 514 592 29,000  Level Boston Center
11:08PM 42.6972 -76.2486 87° East 514 592 29,000  Level Boston Center
11:09PM 42.7028 -76.0794 87° East 514 592 29,000  Level Boston Center
11:10PM 42.7067 -75.8847 88° East 514 592 29,000 -1,140 Level Boston Center
11:11PM 42.7125 -75.6900 88° East 514 592 26,800 -2,460 Descending Boston Center
11:12PM 42.7175 -75.5122 88° East 502 578 24,200 -2,520 Descending Boston Center
11:13PM 42.7197 -75.3453 89° East 468 539 21,900 -2,520 Descending Boston Center
11:14PM 42.7242 -75.1619 88° East 442 509 19,200 -2,340 Descending Boston Center
11:15PM 42.7278 -75.0036 88° East 431 496 17,300 -1,980 Descending Boston Center
11:16PM 42.7286 -74.8767 89° East 413 475 15,600 -2,040 Descending Boston Center
11:17PM 42.7322 -74.6986 88° East 398 458 13,300 -1,860 Descending Boston Center
11:18PM 42.7372 -74.5544 87° East 369 425 11,500 -1,440 Descending Boston Center
11:19PM 42.7353 -74.4217 91° East 338 389 10,400 -1,320 Descending Boston Center
11:20PM 42.7122 -74.3108 106° East 292 336 8,900 -1,560 Descending Boston Center
11:22PM 42.6911 -74.2028 105° East 272 313 7,300 -1,560 Descending Boston Center
11:23PM 42.6717 -74.0978 104° East 279 321 5,800 -1,500 Descending Boston Center
11:24PM 42.6503 -73.9983 106° East 284 327 4,300 -1,560 Descending Boston Center
11:24PM 42.6494 -73.9022 91° East 250 288 2,800 -1,200 Descending Boston Center
11:26PM 42.6567 -73.8206 83° East 202 232 2,000 -840 Descending Boston Center
11:27PM 42.6964 -73.8044 17° North 133 153 1,200 -840 Descending Boston Center